METAR Data
IDs: Format: Raw Decoded Include TAF

Data at: 1243 UTC 15 Jul 2020

KOXC 151151Z 07004KT 7SM BKN015 19/17 A3020
KOXC 151120Z AUTO 09004KT 10SM OVC011 18/17 A3020 RMK AO2
KOXC 150951Z AUTO 05003KT 10SM OVC007 18/17 A3018 RMK AO2 CIG 006V009 SLPNO T01780172
KOXC 150651Z AUTO 07003KT 10SM CLR 18/17 A3012 RMK AO2 SLPNO T01830167
KOXC 150451Z AUTO 00000KT 3SM BR CLR 18/17 A3011 RMK AO2 SLPNO T01830172 402110178
KOXC 150351Z AUTO 00000KT 10SM CLR 19/18 A3010 RMK AO2 SLPNO T01940178 TSNO
KOXC 150151Z AUTO 00000KT 10SM FEW036 20/18 A3008 RMK AO2 SLPNO T02000183 TSNO
KOXC 150051Z 00000KT 10SM CLR 21/19 A3007 RMK AO2 SLP189 T02110189
KOXC 142351Z 00000KT 10SM FEW049 23/19 A3005 RMK AO2 LTG DSNT SE SLP183 T02330189 10272 20228 53023
KOXC 142251Z 00000KT 10SM BKN045 BKN060 23/18 A3003 RMK AO2 TSB28E30 SLP176 T02330178
KOXC 142230Z 00000KT 10SM BKN047 OVC060 24/18 A3002 RMK AO2 TSB28E30
KOXC 142151Z 31003KT 10SM FEW048 BKN120 26/18 A3000 RMK AO2 LTG DSNT W AND NW SLP166 T02560183
KOXC 142051Z 34006KT 10SM FEW060 SCT075 OVC110 26/18 A2998 RMK AO2 SLP160 T02610178 53002
KOXC 141951Z 36005KT 10SM SCT050 27/16 A2997 RMK AO2 SLP155 T02670161
KOXC 141851Z 34011KT 10SM SCT049 BKN100 27/17 A2997 RMK AO2 LTG DSNT E SLP157 T02670172
KOXC 141751Z 33006G14KT 10SM BKN042 27/17 A2997 RMK AO2 SLP155 T02670172 10267 20206 53005
KOXC 141651Z 33010KT 10SM BKN038 26/18 A2996 RMK AO2 SLP153 T02610178
KOXC 141551Z VRB06KT 10SM BKN034 25/18 A2996 RMK AO2 SLP153 T02500178
KOXC 141451Z 36009KT 10SM FEW030 24/18 A2996 RMK AO2 SLP152 T02440178 51005
KOXC 141351Z COR 34008KT 10SM FEW030 24/17 A2996 RMK AO2 SLP152 T02390172
KOXC 141251Z 33008KT 10SM CLR 22/18 A2995 RMK AO2 SLP149 T02220178
KOXC 141151Z 33008KT 10SM CLR 21/17 A2994 RMK AO2 SLP146 T02060172 10206 20183 51019
KOXC 141051Z VRB03KT 10SM CLR 19/17 A2993 RMK AO2 SLP141 T01940167
KOXC 140951Z AUTO 00000KT 10SM CLR 18/17 A2991 RMK AO2 SLP134 T01830167
KOXC 140851Z AUTO 32004KT 10SM CLR 18/17 A2989 RMK AO2 SLP126 T01830167 53001
KOXC 140751Z AUTO 30003KT 10SM SCT095 19/17 A2988 RMK AO2 SLP123 T01890172
KOXC 140651Z AUTO 00000KT 10SM BKN075 19/17 A2987 RMK AO2 SLP121 T01940172
KOXC 140551Z AUTO 32004KT 10SM BKN060 BKN080 21/17 A2988 RMK AO2 SLP125 T02060172 10261 20194 51006
KOXC 140451Z AUTO 32003KT 10SM FEW060 BKN075 20/17 A2988 RMK AO2 SLP125 T02000172 402890194
KOXC 140351Z AUTO 32003KT 10SM FEW100 21/17 A2987 RMK AO2 SLP122 T02060172
KOXC 140251Z AUTO 32004KT 10SM CLR 22/17 A2987 RMK AO2 SLP120 T02170172 51012
KOXC 140151Z AUTO 24003KT 10SM CLR 23/17 A2986 RMK AO2 SLP118 T02280172
KOXC 140051Z 24003KT 10SM CLR 24/17 A2985 RMK AO2 SLP112 T02390172